Time;durP1;ratioP1;P1;durP2;ratioP2;P2;SDS_P1;SDS_P2;PMS_P1;PMS_P2;Temp;Humidity;BMP_temperature;BMP_pressure;BME280_temperature;BME280_humidity;BME280_pressure;Samples;Min_cycle;Max_cycle;Signal;HPM_P1;HPM_P2
2023/09/30 00:01:44;;;;;;;4.13;1.45;;;;;;;16.26;100.00;99612.78;4996771;28;20030;-78
2023/09/30 00:04:09;;;;;;;3.60;1.35;;;;;;;16.07;100.00;99609.94;4996244;28;20022;-78
2023/09/30 00:06:34;;;;;;;3.28;1.17;;;;;;;16.04;100.00;99604.94;4997399;28;20038;-78
2023/09/30 00:09:00;;;;;;;2.90;1.30;;;;;;;15.93;100.00;99600.19;4994923;28;20038;-79
2023/09/30 00:11:25;;;;;;;5.30;1.20;;;;;;;15.70;100.00;99595.25;4995684;28;20484;-78
2023/09/30 00:13:50;;;;;;;3.03;1.10;;;;;;;15.70;100.00;99614.34;4997046;28;20018;-78
2023/09/30 00:16:17;;;;;;;4.75;1.15;;;;;;;15.51;100.00;99591.50;4998611;28;20564;-78
2023/09/30 00:18:43;;;;;;;2.65;1.40;;;;;;;15.53;100.00;99614.78;5003087;28;20034;-79
2023/09/30 00:21:08;;;;;;;5.75;1.70;;;;;;;15.57;100.00;99637.84;4995469;28;20656;-79
2023/09/30 00:23:33;;;;;;;4.97;1.40;;;;;;;15.49;100.00;99620.91;4994765;28;20101;-78
2023/09/30 00:26:00;;;;;;;5.07;1.17;;;;;;;15.45;100.00;99631.38;4996342;28;20026;-79
2023/09/30 00:28:25;;;;;;;3.00;1.10;;;;;;;15.41;100.00;99627.44;4997225;28;20045;-79
2023/09/30 00:30:50;;;;;;;6.00;1.38;;;;;;;15.46;100.00;99638.53;4992281;28;20050;-79
2023/09/30 00:33:16;;;;;;;4.30;1.40;;;;;;;15.46;100.00;99635.81;4996395;28;20079;-78
2023/09/30 00:35:41;;;;;;;4.45;1.30;;;;;;;15.38;100.00;99619.69;4993849;28;20082;-78
2023/09/30 00:38:06;;;;;;;3.92;1.40;;;;;;;15.33;100.00;99614.03;4994122;28;20050;-78
2023/09/30 00:40:31;;;;;;;3.70;1.60;;;;;;;15.25;100.00;99622.47;4993921;28;20031;-78
2023/09/30 00:42:58;;;;;;;3.75;1.60;;;;;;;15.34;100.00;99656.59;4998257;28;20060;-78
2023/09/30 00:45:23;;;;;;;2.67;1.60;;;;;;;15.29;100.00;99657.22;5002016;28;20044;-79
2023/09/30 00:47:48;;;;;;;3.67;1.42;;;;;;;15.31;100.00;99657.03;4995367;28;20026;-79
2023/09/30 00:50:14;;;;;;;3.85;1.30;;;;;;;15.15;100.00;99638.41;5025907;28;20034;-79
2023/09/30 00:52:40;;;;;;;2.70;1.35;;;;;;;15.30;100.00;99655.34;4989620;28;20082;-78
2023/09/30 00:55:06;;;;;;;2.72;1.55;;;;;;;15.42;100.00;99661.00;4980073;28;20049;-78
2023/09/30 00:57:33;;;;;;;4.70;1.60;;;;;;;15.35;100.00;99641.91;5004491;28;20406;-79
2023/09/30 01:00:01;;;;;;;4.18;1.40;;;;;;;15.42;100.00;99648.19;4995139;28;20030;-79
2023/09/30 01:02:26;;;;;;;2.35;1.60;;;;;;;15.30;100.00;99639.84;4991939;28;20500;-78
2023/09/30 01:04:52;;;;;;;3.83;1.48;;;;;;;15.27;100.00;99651.19;4987264;28;20022;-78
2023/09/30 01:07:28;;;;;;;3.50;1.83;;;;;;;15.26;100.00;99665.00;5016465;23;20034;-56
2023/09/30 01:09:53;;;;;;;6.70;1.75;;;;;;;15.13;100.00;99666.69;5014607;28;20477;-61
2023/09/30 01:12:19;;;;;;;3.95;1.45;;;;;;;15.06;100.00;99675.94;5007050;28;20033;-62
2023/09/30 01:14:44;;;;;;;3.70;2.03;;;;;;;15.03;100.00;99682.63;4994654;28;20400;-62
2023/09/30 01:17:13;;;;;;;3.85;1.55;;;;;;;15.03;100.00;99677.19;5010612;28;20108;-61
2023/09/30 01:19:38;;;;;;;3.33;1.77;;;;;;;14.99;100.00;99681.41;5006096;28;20397;-61
2023/09/30 01:22:08;;;;;;;6.15;2.00;;;;;;;14.96;100.00;99680.97;5020688;28;20041;-61
2023/09/30 01:24:40;;;;;;;6.78;1.95;;;;;;;14.90;100.00;99675.31;5007752;28;20022;-61
2023/09/30 01:27:05;;;;;;;8.70;2.15;;;;;;;14.94;100.00;99683.91;4997463;28;20021;-61
2023/09/30 01:29:31;;;;;;;5.90;2.25;;;;;;;14.88;100.00;99673.84;5010709;28;20112;-62
2023/09/30 01:31:56;;;;;;;8.57;2.08;;;;;;;14.81;100.00;99676.59;5010987;28;20089;-62
2023/09/30 01:34:22;;;;;;;4.75;2.55;;;;;;;14.82;100.00;99680.13;5000850;28;20030;-62
2023/09/30 01:36:47;;;;;;;6.38;2.40;;;;;;;14.87;100.00;99683.91;5000974;28;20444;-61
2023/09/30 01:39:13;;;;;;;5.22;1.95;;;;;;;14.91;100.00;99676.16;5010732;28;20544;-61
2023/09/30 01:41:40;;;;;;;4.22;1.98;;;;;;;14.88;100.00;99676.56;4998700;28;20030;-62
2023/09/30 01:44:06;;;;;;;7.97;2.25;;;;;;;14.82;100.00;99670.06;5001467;28;20029;-62
2023/09/30 01:49:53;;;;;;;6.68;2.17;;;;;;;14.70;100.00;99677.22;5009486;28;20069;-61
2023/09/30 01:52:18;;;;;;;3.03;1.85;;;;;;;14.67;100.00;99689.38;5005250;28;20100;-61
2023/09/30 01:54:44;;;;;;;4.72;2.03;;;;;;;14.66;100.00;99689.56;4999721;28;20456;-62
2023/09/30 01:57:09;;;;;;;8.60;2.40;;;;;;;14.71;100.00;99689.78;5005571;28;20453;-61
2023/09/30 01:59:35;;;;;;;4.18;2.20;;;;;;;14.79;100.00;99686.00;4997508;28;20038;-61
2023/09/30 02:02:01;;;;;;;4.72;1.88;;;;;;;14.85;100.00;99690.63;5000041;28;20066;-62
2023/09/30 02:04:27;;;;;;;6.97;2.10;;;;;;;14.90;100.00;99690.81;5004018;28;20049;-61
2023/09/30 02:06:52;;;;;;;5.53;2.40;;;;;;;14.94;100.00;99689.38;5010487;28;20072;-62
2023/09/30 02:09:17;;;;;;;4.72;2.08;;;;;;;14.97;100.00;99688.94;5009550;28;20058;-61
2023/09/30 02:11:45;;;;;;;8.98;2.50;;;;;;;15.00;100.00;99687.69;4999644;28;20023;-62
2023/09/30 02:14:13;;;;;;;4.60;2.15;;;;;;;14.98;100.00;99689.78;5002768;28;20474;-62
2023/09/30 02:16:38;;;;;;;10.55;1.95;;;;;;;14.95;100.00;99695.66;5003518;28;20034;-62
2023/09/30 02:19:04;;;;;;;6.10;2.60;;;;;;;14.89;100.00;99705.50;5011685;28;20034;-62
2023/09/30 02:21:29;;;;;;;5.80;1.98;;;;;;;14.83;100.00;99695.47;5003830;28;20017;-62
2023/09/30 02:23:55;;;;;;;8.63;2.65;;;;;;;14.74;100.00;99699.41;5015191;28;20014;-62
2023/09/30 02:26:21;;;;;;;8.82;2.17;;;;;;;14.62;100.00;99702.78;5003719;28;20496;-61
2023/09/30 02:28:47;;;;;;;5.75;2.33;;;;;;;14.51;100.00;99699.78;5003539;28;20053;-62
2023/09/30 02:31:12;;;;;;;6.22;2.50;;;;;;;14.53;100.00;99697.72;5005633;28;20053;-62
2023/09/30 02:33:39;;;;;;;5.97;2.33;;;;;;;14.43;100.00;99700.81;5012410;28;20029;-62
2023/09/30 02:36:07;;;;;;;7.43;2.75;;;;;;;14.38;100.00;99706.88;5008225;28;20393;-61
2023/09/30 02:38:33;;;;;;;6.35;2.40;;;;;;;14.31;100.00;99697.84;5004409;28;20030;-62
2023/09/30 02:40:58;;;;;;;6.18;2.60;;;;;;;14.18;100.00;99698.66;5001506;28;20530;-61
2023/09/30 02:43:23;;;;;;;7.18;2.88;;;;;;;14.08;100.00;99703.66;5031573;28;20029;-62
2023/09/30 02:45:50;;;;;;;6.32;2.75;;;;;;;14.06;100.00;99703.00;5001510;28;20022;-62
2023/09/30 02:48:15;;;;;;;7.47;2.63;;;;;;;13.97;100.00;99698.81;5009592;28;20103;-62
2023/09/30 02:50:44;;;;;;;8.70;2.72;;;;;;;13.89;100.00;99698.97;5011172;28;20027;-62
2023/09/30 02:53:10;;;;;;;;;;;;;;;13.84;100.00;99717.78;4995666;28;20027;-62
2023/09/30 02:55:36;;;;;;;7.50;2.60;;;;;;;13.73;100.00;99711.88;5005959;28;19909;-61
2023/09/30 02:58:02;;;;;;;6.85;3.05;;;;;;;13.73;100.00;99716.47;4995388;28;20030;-62
2023/09/30 03:00:32;;;;;;;7.00;3.10;;;;;;;13.75;100.00;99717.97;5002523;28;20024;-62
2023/09/30 03:03:01;;;;;;;11.70;3.17;;;;;;;13.76;100.00;99721.50;5005493;28;20027;-62
2023/09/30 03:05:27;;;;;;;7.35;3.25;;;;;;;13.72;100.00;99726.50;5013587;28;20496;-59
2023/09/30 03:07:54;;;;;;;6.70;3.10;;;;;;;13.67;100.00;99722.69;5008470;28;20183;-59
2023/09/30 03:10:20;;;;;;;5.40;3.15;;;;;;;13.60;100.00;99730.84;4994643;28;20030;-60
2023/09/30 03:12:48;;;;;;;8.38;3.30;;;;;;;13.68;100.00;99738.00;4999818;28;20080;-60
2023/09/30 03:15:15;;;;;;;8.55;3.55;;;;;;;13.74;100.00;99748.91;5011036;28;20025;-60
2023/09/30 03:17:41;;;;;;;10.65;4.18;;;;;;;13.68;100.00;99744.28;5004505;28;20022;-60
2023/09/30 03:20:11;;;;;;;7.93;4.20;;;;;;;13.66;100.00;99749.06;5007873;28;20459;-60
2023/09/30 03:22:46;;;;;;;9.07;4.07;;;;;;;13.66;100.00;99742.78;5011753;28;20022;-60
2023/09/30 03:25:15;;;;;;;9.20;4.10;;;;;;;13.61;100.00;99737.94;5011055;28;20032;-62
2023/09/30 03:27:40;;;;;;;9.00;3.58;;;;;;;13.61;100.00;99746.09;5011375;28;20021;-59
2023/09/30 03:30:08;;;;;;;10.98;3.60;;;;;;;13.56;100.00;99751.31;5013220;28;20026;-61
2023/09/30 03:32:34;;;;;;;9.02;3.45;;;;;;;13.51;100.00;99756.50;5020476;28;20045;-61
2023/09/30 03:35:05;;;;;;;11.13;3.72;;;;;;;13.52;100.00;99766.34;4993772;28;20394;-59
2023/09/30 03:37:31;;;;;;;8.90;3.72;;;;;;;13.49;100.00;99761.28;4994892;28;20064;-59
2023/09/30 03:39:57;;;;;;;11.65;4.13;;;;;;;13.49;100.00;99755.84;5005192;28;20031;-60
2023/09/30 03:42:23;;;;;;;9.27;4.13;;;;;;;13.46;100.00;99746.22;5002808;28;20027;-59
2023/09/30 03:44:48;;;;;;;13.27;5.60;;;;;;;13.38;100.00;99739.03;5007312;28;20030;-60
2023/09/30 03:47:17;;;;;;;9.48;4.47;;;;;;;13.34;100.00;99753.25;5012616;28;20458;-59
2023/09/30 03:49:43;;;;;;;9.48;4.30;;;;;;;13.25;100.00;99738.94;5012049;28;20030;-60
2023/09/30 03:52:09;;;;;;;11.90;4.82;;;;;;;13.23;100.00;99743.75;5005465;28;20425;-60
2023/09/30 03:54:35;;;;;;;8.55;4.82;;;;;;;13.18;100.00;99738.06;5005960;28;20068;-60
2023/09/30 03:57:00;;;;;;;14.80;4.97;;;;;;;13.15;100.00;99736.56;4998325;28;20022;-59
2023/09/30 03:59:27;;;;;;;9.73;4.40;;;;;;;13.17;100.00;99730.91;5025371;28;20458;-60
2023/09/30 04:01:53;;;;;;;8.38;4.53;;;;;;;13.03;100.00;99724.56;4998318;28;20030;-60
2023/09/30 04:04:20;;;;;;;13.25;5.47;;;;;;;12.94;100.00;99729.28;5009072;28;20084;-60
2023/09/30 04:06:47;;;;;;;11.27;5.80;;;;;;;12.96;100.00;99739.13;5013108;28;20140;-60
2023/09/30 04:09:13;;;;;;;10.98;5.07;;;;;;;12.86;100.00;99743.03;5003506;28;20524;-59
2023/09/30 04:11:39;;;;;;;12.60;5.53;;;;;;;12.82;100.00;99744.44;4994886;28;20030;-60
2023/09/30 04:14:08;;;;;;;9.20;5.35;;;;;;;12.75;100.00;99743.53;5028874;28;20026;-60
2023/09/30 04:16:35;;;;;;;11.25;5.55;;;;;;;12.72;100.00;99741.19;4995258;28;20033;-60
2023/09/30 04:19:00;;;;;;;15.85;6.20;;;;;;;12.69;100.00;99730.72;4999380;28;20042;-60
2023/09/30 04:21:28;;;;;;;13.73;5.82;;;;;;;12.70;100.00;99729.69;5003424;28;20033;-60
2023/09/30 04:23:54;;;;;;;15.63;5.78;;;;;;;12.67;100.00;99740.94;5009584;28;20161;-60
2023/09/30 04:26:25;;;;;;;15.18;6.30;;;;;;;12.58;100.00;99758.41;5009005;28;20125;-60
2023/09/30 04:28:51;;;;;;;9.73;5.05;;;;;;;12.50;100.00;99748.50;4997813;28;20026;-60
2023/09/30 04:31:28;;;;;;;14.15;5.80;;;;;;;12.50;100.00;99754.78;5008640;28;20031;-60
2023/09/30 04:33:54;;;;;;;12.63;5.97;;;;;;;12.48;100.00;99756.81;5002581;28;20081;-60
2023/09/30 04:36:22;;;;;;;11.30;6.20;;;;;;;12.52;100.00;99767.28;5009090;28;20026;-60
2023/09/30 04:38:48;;;;;;;18.15;10.32;;;;;;;12.45;100.00;99772.66;5003327;28;20057;-60
2023/09/30 04:41:15;;;;;;;13.90;7.03;;;;;;;12.42;100.00;99781.19;5008880;28;20034;-60
2023/09/30 04:43:40;;;;;;;15.25;7.90;;;;;;;12.47;100.00;99773.28;5003049;28;20113;-60
2023/09/30 04:46:09;;;;;;;13.80;6.80;;;;;;;12.49;100.00;99771.25;5008132;28;20109;-59
2023/09/30 04:48:35;;;;;;;9.75;5.75;;;;;;;12.47;100.00;99779.59;5005400;28;20129;-59
2023/09/30 04:51:04;;;;;;;11.77;6.05;;;;;;;12.46;100.00;99787.91;5001307;28;20109;-62
2023/09/30 04:53:30;;;;;;;13.80;6.35;;;;;;;12.43;100.00;99799.16;5000504;28;20504;-60
2023/09/30 04:55:55;;;;;;;9.52;5.70;;;;;;;12.46;100.00;99810.47;4998869;28;20034;-59
2023/09/30 04:58:23;;;;;;;12.30;6.20;;;;;;;12.51;100.00;99796.31;5007682;28;20026;-60
2023/09/30 05:00:49;;;;;;;13.38;7.05;;;;;;;12.58;100.00;99804.56;4989507;28;20113;-60
2023/09/30 05:03:14;;;;;;;14.63;6.05;;;;;;;12.52;100.00;99803.41;5016373;28;20165;-59
2023/09/30 05:05:40;;;;;;;15.10;6.05;;;;;;;12.51;100.00;99809.88;5003891;28;20461;-60
2023/09/30 05:08:06;;;;;;;10.40;5.50;;;;;;;12.54;100.00;99811.38;4996268;28;20027;-60
2023/09/30 05:10:31;;;;;;;9.68;4.82;;;;;;;12.58;100.00;99807.25;5000482;28;20030;-60
2023/09/30 05:12:57;;;;;;;9.27;4.80;;;;;;;12.64;100.00;99822.78;5008871;28;20033;-60
2023/09/30 05:15:22;;;;;;;8.10;4.88;;;;;;;12.73;100.00;99821.59;5011641;28;20018;-60
2023/09/30 05:17:48;;;;;;;9.23;4.75;;;;;;;12.78;100.00;99818.31;5009590;28;20069;-60
2023/09/30 05:20:17;;;;;;;9.35;4.50;;;;;;;12.70;100.00;99811.13;4996221;28;20026;-59
2023/09/30 05:22:45;;;;;;;9.00;4.60;;;;;;;12.66;100.00;99799.84;5003214;28;20112;-60
2023/09/30 05:25:10;;;;;;;7.68;4.45;;;;;;;12.54;100.00;99814.09;5006261;28;20025;-60
2023/09/30 05:27:37;;;;;;;12.88;5.75;;;;;;;12.54;100.00;99817.66;5002530;28;20435;-62
2023/09/30 05:30:05;;;;;;;11.95;5.28;;;;;;;12.57;100.00;99800.97;5004116;28;20058;-59
2023/09/30 05:32:38;;;;;;;7.97;5.37;;;;;;;12.60;100.00;99799.75;5009467;28;20117;-59
2023/09/30 05:35:05;;;;;;;14.70;5.93;;;;;;;12.64;100.00;99791.03;5002803;28;20092;-59
2023/09/30 05:37:32;;;;;;;9.00;5.20;;;;;;;12.62;100.00;99792.25;5005624;28;20034;-59
2023/09/30 05:39:58;;;;;;;9.43;4.95;;;;;;;12.60;100.00;99787.03;4993460;28;20386;-59
2023/09/30 05:42:23;;;;;;;9.18;4.60;;;;;;;12.62;100.00;99786.84;5001651;28;20035;-59
2023/09/30 05:44:49;;;;;;;7.35;4.95;;;;;;;12.68;100.00;99795.06;5008056;28;20037;-61
2023/09/30 05:47:15;;;;;;;6.20;4.28;;;;;;;12.77;100.00;99803.06;5006780;28;20030;-60
2023/09/30 05:49:41;;;;;;;8.38;4.88;;;;;;;12.89;100.00;99794.22;5000875;28;20814;-60
2023/09/30 05:52:07;;;;;;;10.00;5.75;;;;;;;12.95;100.00;99795.31;4998340;28;20415;-59
2023/09/30 05:54:32;;;;;;;8.90;4.38;;;;;;;13.03;100.00;99806.06;5003779;28;20054;-59
2023/09/30 05:56:58;;;;;;;13.10;5.25;;;;;;;13.11;100.00;99808.63;5000110;28;20026;-60
2023/09/30 05:59:25;;;;;;;12.52;5.28;;;;;;;13.21;100.00;99802.03;5004014;28;20179;-59
2023/09/30 06:01:51;;;;;;;9.70;4.97;;;;;;;13.32;100.00;99799.66;4998525;28;20496;-59
2023/09/30 06:04:16;;;;;;;15.23;5.53;;;;;;;13.50;100.00;99817.34;4996263;28;20105;-59
2023/09/30 06:06:43;;;;;;;8.18;4.28;;;;;;;13.74;100.00;99818.78;5008104;28;20084;-59
2023/09/30 06:09:08;;;;;;;11.10;4.32;;;;;;;13.91;100.00;99809.28;5001847;28;20480;-59
2023/09/30 06:11:35;;;;;;;8.10;4.70;;;;;;;14.03;100.00;99813.09;4998934;28;20034;-60
2023/09/30 06:14:01;;;;;;;10.45;4.25;;;;;;;14.30;100.00;99820.53;4998616;28;20026;-59
2023/09/30 06:16:27;;;;;;;10.07;3.90;;;;;;;14.87;100.00;99811.13;5011138;28;20253;-60
2023/09/30 06:18:53;;;;;;;9.30;3.92;;;;;;;15.47;100.00;99806.56;5000204;28;20030;-60
2023/09/30 06:21:24;;;;;;;11.80;4.03;;;;;;;15.93;100.00;99788.50;4997825;28;21227;-60
2023/09/30 06:23:53;;;;;;;6.32;3.70;;;;;;;16.34;100.00;99785.38;4996978;28;20363;-60
2023/09/30 06:26:18;;;;;;;9.80;3.60;;;;;;;16.90;100.00;99755.66;5000312;28;20033;-60
2023/09/30 06:28:45;;;;;;;7.53;3.03;;;;;;;16.26;100.00;99774.69;4998676;28;20038;-60
2023/09/30 06:31:11;;;;;;;5.80;3.30;;;;;;;15.67;100.00;99794.81;5000080;28;20044;-60
2023/09/30 06:33:41;;;;;;;7.30;3.85;;;;;;;15.34;100.00;99787.47;5004489;28;20088;-60
2023/09/30 06:36:14;;;;;;;6.95;3.28;;;;;;;15.26;100.00;99788.53;5006458;28;20215;-60
2023/09/30 06:38:41;;;;;;;12.38;3.10;;;;;;;15.93;100.00;99789.31;5004927;28;20026;-60
2023/09/30 06:41:07;;;;;;;10.48;3.75;;;;;;;17.09;100.00;99768.38;5004690;28;20030;-60
2023/09/30 06:43:34;;;;;;;6.88;3.50;;;;;;;17.50;100.00;99766.94;5003957;28;20382;-60
2023/09/30 06:46:07;;;;;;;11.32;3.65;;;;;;;18.02;100.00;99761.19;5003753;28;20026;-62
2023/09/30 06:48:32;;;;;;;12.00;3.90;;;;;;;18.71;100.00;99757.13;5004419;28;20026;-62
2023/09/30 06:50:59;;;;;;;9.70;3.67;;;;;;;19.89;100.00;99760.88;5004466;28;20093;-62
2023/09/30 06:53:24;;;;;;;5.72;3.08;;;;;;;20.32;100.00;99770.56;5006556;28;20493;-63
2023/09/30 06:55:51;;;;;;;13.75;3.08;;;;;;;20.97;100.00;99771.28;5000489;28;20026;-62
2023/09/30 06:58:20;;;;;;;12.80;2.80;;;;;;;19.94;100.00;99773.88;5005024;28;20470;-62
2023/09/30 07:00:47;;;;;;;13.23;3.03;;;;;;;19.05;100.00;99785.75;5004948;28;20038;-62
2023/09/30 07:03:15;;;;;;;6.68;2.95;;;;;;;19.89;100.00;99782.00;5003742;28;20022;-63
2023/09/30 07:05:40;;;;;;;5.63;2.83;;;;;;;21.30;100.00;99769.63;5017990;28;20383;-62
2023/09/30 07:08:06;;;;;;;6.45;3.28;;;;;;;21.89;100.00;99764.50;4994492;28;20107;-63
2023/09/30 07:10:31;;;;;;;8.00;2.72;;;;;;;22.75;100.00;99758.41;5004776;28;20107;-62
2023/09/30 07:12:57;;;;;;;5.63;2.45;;;;;;;22.48;100.00;99764.75;5006813;28;20081;-63
2023/09/30 07:15:22;;;;;;;5.60;2.67;;;;;;;22.86;100.00;99768.44;5018016;28;20105;-63
2023/09/30 07:17:48;;;;;;;5.10;2.50;;;;;;;22.84;100.00;99767.03;5006774;28;20032;-63
2023/09/30 07:20:14;;;;;;;6.78;2.78;;;;;;;23.59;100.00;99751.44;4995680;28;20390;-56
2023/09/30 07:22:40;;;;;;;5.05;2.63;;;;;;;24.31;100.00;99779.47;5007558;28;20034;-56
2023/09/30 07:25:06;;;;;;;6.35;2.47;;;;;;;25.01;100.00;99791.06;4999301;28;20026;-56
2023/09/30 07:27:31;;;;;;;5.85;2.58;;;;;;;26.16;100.00;99784.09;5008825;28;20454;-56
2023/09/30 07:29:57;;;;;;;9.05;2.20;;;;;;;26.65;97.94;99786.16;4994966;28;20030;-56
2023/09/30 07:32:23;;;;;;;6.55;2.65;;;;;;;27.95;83.25;99788.50;5006844;28;20022;-56
2023/09/30 07:34:49;;;;;;;5.00;2.50;;;;;;;27.72;80.18;99779.81;4996515;28;20103;-56
2023/09/30 07:37:15;;;;;;;5.85;2.83;;;;;;;27.55;80.78;99776.63;5007395;28;20021;-57
2023/09/30 07:39:40;;;;;;;6.43;2.67;;;;;;;27.54;79.18;99783.31;4998085;28;20544;-56
2023/09/30 07:42:08;;;;;;;6.88;3.00;;;;;;;27.08;83.29;99789.19;5014384;28;20025;-56
2023/09/30 07:44:36;;;;;;;5.53;2.73;;;;;;;28.32;73.56;99795.28;5008115;28;20524;-57
2023/09/30 07:47:01;;;;;;;8.52;2.92;;;;;;;28.45;70.38;99796.56;4999992;28;20795;-56
2023/09/30 07:49:29;;;;;;;6.75;2.92;;;;;;;26.81;78.27;99801.59;4995369;28;20026;-56
2023/09/30 07:51:55;;;;;;;5.20;2.42;;;;;;;28.99;69.21;99812.81;5010263;28;20478;-56
2023/09/30 07:54:21;;;;;;;5.75;2.88;;;;;;;29.59;63.81;99825.28;5001154;28;20019;-56
2023/09/30 07:56:46;;;;;;;6.20;2.38;;;;;;;31.53;59.70;99815.72;5014614;28;20036;-57
2023/09/30 07:59:12;;;;;;;6.78;2.50;;;;;;;29.98;61.03;99818.50;5005124;28;20022;-57
2023/09/30 08:01:38;;;;;;;6.32;2.65;;;;;;;30.60;60.55;99818.94;5009038;28;20034;-57
2023/09/30 08:04:04;;;;;;;9.38;3.10;;;;;;;29.96;60.63;99816.00;5000545;28;20014;-57
2023/09/30 08:06:29;;;;;;;10.70;2.72;;;;;;;30.26;60.18;99795.09;4990727;28;20112;-57
2023/09/30 08:08:55;;;;;;;8.52;3.20;;;;;;;28.60;63.68;99783.28;4999055;28;20034;-57
2023/09/30 08:11:20;;;;;;;6.72;2.72;;;;;;;28.34;66.28;99784.69;5010557;28;20064;-56
2023/09/30 08:13:46;;;;;;;6.57;2.63;;;;;;;27.97;68.44;99784.28;5005963;28;20048;-56
2023/09/30 08:16:11;;;;;;;5.72;3.08;;;;;;;28.72;64.37;99782.84;4999392;28;20026;-57
2023/09/30 08:18:37;;;;;;;8.95;3.08;;;;;;;28.01;66.83;99789.25;5020674;28;20034;-57
2023/09/30 08:21:02;;;;;;;7.45;2.88;;;;;;;27.72;66.15;99790.94;4996647;28;20076;-56
2023/09/30 08:23:30;;;;;;;7.88;3.30;;;;;;;27.26;68.62;99794.09;4999611;28;20031;-57
2023/09/30 08:25:58;;;;;;;5.97;2.50;;;;;;;29.36;65.19;99793.59;4994762;28;20469;-57
2023/09/30 08:28:24;;;;;;;6.20;2.80;;;;;;;29.57;60.47;99785.72;4999910;28;20040;-57
2023/09/30 08:30:50;;;;;;;5.40;2.17;;;;;;;30.33;59.29;99791.88;5003276;28;20410;-57
2023/09/30 08:33:16;;;;;;;7.00;2.83;;;;;;;30.26;58.04;99800.69;5002018;28;20022;-56
2023/09/30 08:35:41;;;;;;;7.45;2.20;;;;;;;30.71;56.73;99795.25;5002583;28;20385;-56
2023/09/30 08:38:07;;;;;;;5.38;1.95;;;;;;;30.65;56.13;99781.69;5005464;28;20092;-57
2023/09/30 08:40:32;;;;;;;5.15;2.20;;;;;;;30.33;55.74;99770.34;4998879;28;20026;-57
2023/09/30 08:42:59;;;;;;;4.75;2.00;;;;;;;29.72;57.69;99768.75;5000101;28;20511;-57
2023/09/30 08:45:29;;;;;;;6.07;2.25;;;;;;;28.74;60.88;99788.94;5001962;28;20362;-56
2023/09/30 08:47:54;;;;;;;7.80;2.75;;;;;;;27.98;64.86;99799.03;5013913;28;20048;-56
2023/09/30 08:50:21;;;;;;;5.38;2.08;;;;;;;29.46;61.92;99799.03;5001027;28;20485;-56
2023/09/30 08:52:48;;;;;;;4.82;2.25;;;;;;;29.65;60.26;99796.19;5004568;28;20056;-56
2023/09/30 08:55:13;;;;;;;7.75;2.42;;;;;;;31.03;57.32;99789.81;4996034;28;20088;-56
2023/09/30 08:57:41;;;;;;;7.47;2.70;;;;;;;30.32;58.33;99799.41;5008663;28;20029;-63
2023/09/30 09:00:11;;;;;;;7.55;2.63;;;;;;;31.01;55.60;99788.16;4994153;28;20030;-63
2023/09/30 09:02:37;;;;;;;9.55;2.58;;;;;;;32.15;52.37;99780.50;5004060;28;20025;-63
2023/09/30 09:05:06;;;;;;;6.50;2.75;;;;;;;32.42;51.99;99790.66;5001772;28;20453;-63
2023/09/30 09:07:32;;;;;;;5.75;2.35;;;;;;;32.86;50.04;99800.84;5001825;28;20080;-63
2023/09/30 09:10:08;;;;;;;10.18;3.05;;;;;;;32.52;50.02;99796.81;5000333;28;20037;-63
2023/09/30 09:12:35;;;;;;;7.35;2.90;;;;;;;31.45;51.46;99796.91;4995587;28;20026;-63
2023/09/30 09:15:01;;;;;;;6.43;2.83;;;;;;;30.71;53.35;99805.59;4994077;28;20030;-63
2023/09/30 09:17:41;;;;;;;7.03;2.70;;;;;;;32.19;50.44;99801.13;5011388;28;20029;-62
2023/09/30 09:20:09;;;;;;;5.45;2.50;;;;;;;33.39;48.88;99796.91;4998839;28;20124;-63
2023/09/30 09:22:41;;;;;;;6.83;2.70;;;;;;;32.77;49.40;99801.97;4989610;28;20098;-63
2023/09/30 09:25:07;;;;;;;5.28;2.10;;;;;;;31.09;51.79;99791.34;5000660;28;20034;-62
2023/09/30 09:27:37;;;;;;;8.27;2.47;;;;;;;30.45;54.00;99799.72;5002929;28;20113;-62
2023/09/30 09:30:16;;;;;;;8.65;2.80;;;;;;;30.91;53.92;99798.75;4998344;28;20054;-62
2023/09/30 09:32:53;;;;;;;5.03;2.25;;;;;;;32.47;49.89;99793.31;4999190;28;20025;-62
2023/09/30 09:35:20;;;;;;;5.82;2.47;;;;;;;32.15;50.73;99786.13;4992852;28;20363;-62
2023/09/30 09:38:07;;;;;;;6.03;2.65;;;;;;;31.63;49.41;99795.06;5007129;28;20112;-62
2023/09/30 09:40:40;;;;;;;6.63;3.10;;;;;;;29.84;52.50;99799.78;5005111;28;20076;-61
2023/09/30 09:43:06;;;;;;;9.10;3.15;;;;;;;28.08;55.36;99801.69;5004128;28;20022;-62
2023/09/30 09:45:37;;;;;;;5.57;2.60;;;;;;;28.75;54.95;99807.31;5000251;28;20018;-62
2023/09/30 09:48:04;;;;;;;6.55;2.78;;;;;;;29.86;52.30;99791.91;4997525;28;20014;-62
2023/09/30 09:50:32;;;;;;;7.65;3.10;;;;;;;30.83;50.17;99789.13;5008508;28;20386;-55
2023/09/30 09:52:59;;;;;;;6.68;3.22;;;;;;;31.26;50.06;99787.84;4997236;28;20030;-56
2023/09/30 09:55:26;;;;;;;10.32;3.05;;;;;;;31.58;48.30;99784.81;4994163;28;20453;-56
2023/09/30 09:57:52;;;;;;;8.32;3.00;;;;;;;31.69;47.14;99782.59;5006587;28;20113;-55
2023/09/30 10:00:23;;;;;;;8.98;2.92;;;;;;;32.39;45.65;99780.13;4999637;28;20061;-56
2023/09/30 10:02:49;;;;;;;5.43;2.70;;;;;;;33.60;44.95;99780.22;4996057;28;20025;-56
2023/09/30 10:05:16;;;;;;;8.23;2.65;;;;;;;33.14;44.09;99778.97;5004991;28;20041;-56
2023/09/30 10:08:00;;;;;;;7.40;3.13;;;;;;;34.50;41.40;99780.41;4993570;28;21664;-56
2023/09/30 10:10:26;;;;;;;6.65;3.13;;;;;;;31.47;46.25;99782.59;5015340;28;20597;-55
2023/09/30 10:12:52;;;;;;;8.30;2.95;;;;;;;31.96;44.70;99767.59;4998484;28;20469;-56
2023/09/30 10:15:26;;;;;;;4.78;2.15;;;;;;;34.00;43.48;99770.69;5002988;28;20758;-56
2023/09/30 10:18:12;;;;;;;5.75;2.45;;;;;;;35.05;41.41;99766.13;5000169;28;20510;-53
2023/09/30 10:20:44;;;;;;;6.82;2.60;;;;;;;35.48;40.93;99762.13;5005226;28;20125;-53
2023/09/30 10:23:27;;;;;;;6.80;3.03;;;;;;;34.80;41.22;99767.16;5003874;28;20462;-53
2023/09/30 10:26:15;;;;;;;6.35;2.97;;;;;;;32.79;43.50;99772.47;5007735;28;20450;-53
2023/09/30 10:28:44;;;;;;;7.55;2.72;;;;;;;33.61;42.92;99769.81;5002989;28;20034;-53
2023/09/30 10:31:24;;;;;;;7.47;3.05;;;;;;;33.81;41.58;99759.88;5002811;28;20117;-53
2023/09/30 10:33:59;;;;;;;7.72;2.67;;;;;;;35.87;39.13;99759.91;5000290;28;20088;-53
2023/09/30 10:36:34;;;;;;;5.80;2.40;;;;;;;35.98;38.84;99749.00;5011029;28;20121;-53
2023/09/30 10:39:01;;;;;;;8.63;2.90;;;;;;;36.61;39.73;99748.66;4992246;28;20065;-54
2023/09/30 10:41:39;;;;;;;5.50;2.60;;;;;;;36.98;37.51;99749.38;5010837;28;20092;-54
2023/09/30 10:44:26;;;;;;;7.68;2.92;;;;;;;39.34;35.66;99748.88;5008700;28;20517;-53
2023/09/30 10:46:53;;;;;;;5.57;2.83;;;;;;;38.41;34.74;99741.13;4998554;28;20041;-54
2023/09/30 10:49:24;;;;;;;9.68;3.25;;;;;;;37.93;36.00;99737.50;5008912;28;20519;-54
2023/09/30 10:51:55;;;;;;;7.68;3.38;;;;;;;37.01;36.65;99733.72;5006794;28;20117;-54
2023/09/30 10:54:25;;;;;;;7.60;3.03;;;;;;;34.24;39.90;99731.63;5005279;28;20030;-54
2023/09/30 10:56:52;;;;;;;6.50;2.90;;;;;;;31.87;43.39;99733.13;5012174;28;20034;-61
2023/09/30 10:59:25;;;;;;;7.50;2.78;;;;;;;31.45;44.04;99729.78;5010046;28;20045;-61
2023/09/30 11:01:52;;;;;;;6.43;3.20;;;;;;;33.41;42.69;99728.44;5002213;28;20497;-61
2023/09/30 11:04:19;;;;;;;8.30;3.22;;;;;;;34.38;41.29;99716.50;5013115;28;20038;-61
2023/09/30 11:06:46;;;;;;;6.57;2.72;;;;;;;37.04;37.06;99716.94;4998644;28;20026;-61
2023/09/30 11:09:20;;;;;;;7.05;3.67;;;;;;;36.57;36.03;99711.06;5001160;28;20029;-61
2023/09/30 11:11:50;;;;;;;8.15;3.83;;;;;;;34.21;38.07;99711.81;5003403;28;20126;-60
2023/09/30 11:14:30;;;;;;;8.05;3.50;;;;;;;32.13;40.54;99715.63;5017883;28;20463;-61
2023/09/30 11:17:01;;;;;;;6.68;3.25;;;;;;;31.76;43.24;99714.97;4999149;28;20037;-55
2023/09/30 11:19:35;;;;;;;7.88;4.43;;;;;;;30.53;42.50;99702.06;5007926;28;20414;-54
2023/09/30 11:22:01;;;;;;;11.27;4.18;;;;;;;30.27;43.02;99710.19;5003121;28;20038;-54
2023/09/30 11:24:28;;;;;;;6.95;3.20;;;;;;;29.34;44.73;99715.84;4999391;28;20493;-54
2023/09/30 11:26:55;;;;;;;8.93;4.07;;;;;;;28.81;46.24;99716.97;5011629;28;20113;-54
2023/09/30 11:29:21;;;;;;;9.20;3.97;;;;;;;28.18;48.87;99722.84;5004541;28;20033;-54
2023/09/30 11:31:48;;;;;;;10.30;3.58;;;;;;;27.65;50.66;99712.59;5009638;28;20030;-54